sensor_id;sensor_type;location;lat;lon;timestamp;P1;durP1;ratioP1;P2;durP2;ratioP2
11064;SDS011;5585;52.530;7.320;2022-12-07T00:01:23;5.50;;;4.80;;
11064;SDS011;5585;52.530;7.320;2022-12-07T00:03:51;4.47;;;4.03;;
11064;SDS011;5585;52.530;7.320;2022-12-07T00:06:18;4.90;;;4.30;;
11064;SDS011;5585;52.530;7.320;2022-12-07T00:08:45;4.93;;;4.00;;
11064;SDS011;5585;52.530;7.320;2022-12-07T00:11:13;4.53;;;4.13;;
11064;SDS011;5585;52.530;7.320;2022-12-07T00:13:40;4.63;;;4.10;;
11064;SDS011;5585;52.530;7.320;2022-12-07T00:16:07;4.00;;;3.60;;
11064;SDS011;5585;52.530;7.320;2022-12-07T00:18:34;4.10;;;3.63;;
11064;SDS011;5585;52.530;7.320;2022-12-07T00:21:01;4.23;;;3.83;;
11064;SDS011;5585;52.530;7.320;2022-12-07T00:23:28;4.20;;;3.80;;
11064;SDS011;5585;52.530;7.320;2022-12-07T00:25:54;4.03;;;3.67;;
11064;SDS011;5585;52.530;7.320;2022-12-07T00:28:22;5.53;;;3.70;;
11064;SDS011;5585;52.530;7.320;2022-12-07T00:30:49;5.80;;;3.80;;
11064;SDS011;5585;52.530;7.320;2022-12-07T00:33:15;5.80;;;3.40;;
11064;SDS011;5585;52.530;7.320;2022-12-07T00:35:42;6.33;;;3.30;;
11064;SDS011;5585;52.530;7.320;2022-12-07T00:38:08;4.63;;;3.40;;
11064;SDS011;5585;52.530;7.320;2022-12-07T00:40:35;3.30;;;2.97;;
11064;SDS011;5585;52.530;7.320;2022-12-07T00:43:01;5.07;;;3.47;;
11064;SDS011;5585;52.530;7.320;2022-12-07T00:45:29;4.60;;;3.20;;
11064;SDS011;5585;52.530;7.320;2022-12-07T00:47:56;5.13;;;3.20;;
11064;SDS011;5585;52.530;7.320;2022-12-07T00:50:22;4.43;;;3.10;;
11064;SDS011;5585;52.530;7.320;2022-12-07T00:52:49;3.03;;;2.37;;
11064;SDS011;5585;52.530;7.320;2022-12-07T00:55:15;4.87;;;2.60;;
11064;SDS011;5585;52.530;7.320;2022-12-07T00:57:42;4.27;;;2.20;;
11064;SDS011;5585;52.530;7.320;2022-12-07T01:00:08;3.53;;;2.43;;
11064;SDS011;5585;52.530;7.320;2022-12-07T01:02:36;3.23;;;2.10;;
11064;SDS011;5585;52.530;7.320;2022-12-07T01:05:03;3.63;;;2.00;;
11064;SDS011;5585;52.530;7.320;2022-12-07T01:07:30;4.07;;;1.83;;
11064;SDS011;5585;52.530;7.320;2022-12-07T01:09:56;3.17;;;2.07;;
11064;SDS011;5585;52.530;7.320;2022-12-07T01:12:23;3.40;;;2.10;;
11064;SDS011;5585;52.530;7.320;2022-12-07T01:14:49;4.53;;;2.33;;
11064;SDS011;5585;52.530;7.320;2022-12-07T01:17:16;3.60;;;1.77;;
11064;SDS011;5585;52.530;7.320;2022-12-07T01:19:44;2.13;;;1.70;;
11064;SDS011;5585;52.530;7.320;2022-12-07T01:22:10;6.80;;;1.90;;
11064;SDS011;5585;52.530;7.320;2022-12-07T01:24:37;2.70;;;1.43;;
11064;SDS011;5585;52.530;7.320;2022-12-07T01:27:03;2.40;;;1.30;;
11064;SDS011;5585;52.530;7.320;2022-12-07T01:29:30;3.77;;;1.70;;
11064;SDS011;5585;52.530;7.320;2022-12-07T01:31:56;2.90;;;1.43;;
11064;SDS011;5585;52.530;7.320;2022-12-07T01:34:23;3.47;;;1.30;;
11064;SDS011;5585;52.530;7.320;2022-12-07T01:36:51;2.00;;;1.10;;
11064;SDS011;5585;52.530;7.320;2022-12-07T01:39:17;2.40;;;1.10;;
11064;SDS011;5585;52.530;7.320;2022-12-07T01:41:44;4.33;;;1.20;;
11064;SDS011;5585;52.530;7.320;2022-12-07T01:44:18;4.07;;;1.17;;
11064;SDS011;5585;52.530;7.320;2022-12-07T01:46:46;3.13;;;1.07;;
11064;SDS011;5585;52.530;7.320;2022-12-07T01:49:16;3.37;;;1.10;;
11064;SDS011;5585;52.530;7.320;2022-12-07T01:51:44;5.43;;;1.43;;
11064;SDS011;5585;52.530;7.320;2022-12-07T01:54:14;2.20;;;1.17;;
11064;SDS011;5585;52.530;7.320;2022-12-07T01:56:41;4.03;;;1.30;;
11064;SDS011;5585;52.530;7.320;2022-12-07T01:59:10;4.30;;;1.17;;
11064;SDS011;5585;52.530;7.320;2022-12-07T02:01:36;2.67;;;1.00;;
11064;SDS011;5585;52.530;7.320;2022-12-07T02:04:03;2.53;;;1.00;;
11064;SDS011;5585;52.530;7.320;2022-12-07T02:06:30;4.63;;;1.20;;
11064;SDS011;5585;52.530;7.320;2022-12-07T02:08:57;3.70;;;1.40;;
11064;SDS011;5585;52.530;7.320;2022-12-07T02:11:25;3.30;;;1.17;;
11064;SDS011;5585;52.530;7.320;2022-12-07T02:13:51;3.87;;;1.10;;
11064;SDS011;5585;52.530;7.320;2022-12-07T02:16:21;3.07;;;0.90;;
11064;SDS011;5585;52.530;7.320;2022-12-07T02:19:05;3.57;;;0.87;;
11064;SDS011;5585;52.530;7.320;2022-12-07T02:21:39;3.27;;;1.00;;
11064;SDS011;5585;52.530;7.320;2022-12-07T02:24:13;3.00;;;0.80;;
11064;SDS011;5585;52.530;7.320;2022-12-07T02:26:45;2.50;;;0.80;;
11064;SDS011;5585;52.530;7.320;2022-12-07T02:29:19;2.10;;;1.00;;
11064;SDS011;5585;52.530;7.320;2022-12-07T02:31:53;4.50;;;0.90;;
11064;SDS011;5585;52.530;7.320;2022-12-07T02:34:22;4.00;;;0.93;;
11064;SDS011;5585;52.530;7.320;2022-12-07T02:36:52;3.97;;;1.00;;
11064;SDS011;5585;52.530;7.320;2022-12-07T02:39:20;2.93;;;0.80;;
11064;SDS011;5585;52.530;7.320;2022-12-07T02:41:50;4.07;;;1.20;;
11064;SDS011;5585;52.530;7.320;2022-12-07T02:44:20;3.17;;;1.10;;
11064;SDS011;5585;52.530;7.320;2022-12-07T02:46:57;2.30;;;1.00;;
11064;SDS011;5585;52.530;7.320;2022-12-07T02:49:30;5.57;;;1.00;;
11064;SDS011;5585;52.530;7.320;2022-12-07T02:51:57;2.47;;;0.77;;
11064;SDS011;5585;52.530;7.320;2022-12-07T02:54:24;5.53;;;1.30;;
11064;SDS011;5585;52.530;7.320;2022-12-07T02:56:51;4.20;;;0.90;;
11064;SDS011;5585;52.530;7.320;2022-12-07T02:59:23;4.63;;;1.77;;
11064;SDS011;5585;52.530;7.320;2022-12-07T03:01:53;5.70;;;1.90;;
11064;SDS011;5585;52.530;7.320;2022-12-07T03:04:29;4.70;;;1.00;;
11064;SDS011;5585;52.530;7.320;2022-12-07T03:07:00;3.63;;;1.10;;
11064;SDS011;5585;52.530;7.320;2022-12-07T03:09:31;5.67;;;1.00;;
11064;SDS011;5585;52.530;7.320;2022-12-07T03:12:00;2.73;;;0.73;;
11064;SDS011;5585;52.530;7.320;2022-12-07T03:14:30;2.73;;;0.90;;
11064;SDS011;5585;52.530;7.320;2022-12-07T03:16:57;2.27;;;0.80;;
11064;SDS011;5585;52.530;7.320;2022-12-07T03:19:25;3.27;;;0.97;;
11064;SDS011;5585;52.530;7.320;2022-12-07T03:21:53;3.50;;;0.70;;
11064;SDS011;5585;52.530;7.320;2022-12-07T03:24:21;2.70;;;0.60;;
11064;SDS011;5585;52.530;7.320;2022-12-07T03:26:50;1.93;;;0.80;;
11064;SDS011;5585;52.530;7.320;2022-12-07T03:29:18;3.60;;;0.90;;
11064;SDS011;5585;52.530;7.320;2022-12-07T03:31:47;1.93;;;0.63;;
11064;SDS011;5585;52.530;7.320;2022-12-07T03:34:15;2.53;;;0.70;;
11064;SDS011;5585;52.530;7.320;2022-12-07T03:36:43;3.87;;;1.07;;
11064;SDS011;5585;52.530;7.320;2022-12-07T03:39:13;3.43;;;0.90;;
11064;SDS011;5585;52.530;7.320;2022-12-07T03:41:42;2.70;;;0.90;;
11064;SDS011;5585;52.530;7.320;2022-12-07T03:44:09;4.77;;;1.23;;
11064;SDS011;5585;52.530;7.320;2022-12-07T03:46:37;3.07;;;1.07;;
11064;SDS011;5585;52.530;7.320;2022-12-07T03:49:11;4.10;;;1.63;;
11064;SDS011;5585;52.530;7.320;2022-12-07T03:51:39;4.50;;;1.30;;
11064;SDS011;5585;52.530;7.320;2022-12-07T03:54:09;3.97;;;0.70;;
11064;SDS011;5585;52.530;7.320;2022-12-07T03:56:36;4.57;;;2.03;;
11064;SDS011;5585;52.530;7.320;2022-12-07T03:59:03;4.77;;;1.57;;
11064;SDS011;5585;52.530;7.320;2022-12-07T04:01:31;4.43;;;0.80;;
11064;SDS011;5585;52.530;7.320;2022-12-07T04:03:57;5.50;;;1.23;;
11064;SDS011;5585;52.530;7.320;2022-12-07T04:06:25;2.70;;;0.90;;
11064;SDS011;5585;52.530;7.320;2022-12-07T04:08:52;4.37;;;1.07;;
11064;SDS011;5585;52.530;7.320;2022-12-07T04:11:18;4.83;;;1.10;;
11064;SDS011;5585;52.530;7.320;2022-12-07T04:13:45;5.23;;;1.07;;
11064;SDS011;5585;52.530;7.320;2022-12-07T04:16:29;7.10;;;1.03;;
11064;SDS011;5585;52.530;7.320;2022-12-07T04:18:55;3.57;;;1.07;;
11064;SDS011;5585;52.530;7.320;2022-12-07T04:21:22;3.50;;;0.90;;
11064;SDS011;5585;52.530;7.320;2022-12-07T04:23:50;1.60;;;0.70;;
11064;SDS011;5585;52.530;7.320;2022-12-07T04:26:16;3.47;;;0.97;;
11064;SDS011;5585;52.530;7.320;2022-12-07T04:28:43;5.73;;;1.10;;
11064;SDS011;5585;52.530;7.320;2022-12-07T04:31:09;3.53;;;1.00;;
11064;SDS011;5585;52.530;7.320;2022-12-07T04:33:36;4.27;;;1.13;;
11064;SDS011;5585;52.530;7.320;2022-12-07T04:36:02;3.13;;;1.20;;
11064;SDS011;5585;52.530;7.320;2022-12-07T04:38:29;2.97;;;0.90;;
11064;SDS011;5585;52.530;7.320;2022-12-07T04:40:57;4.07;;;1.17;;
11064;SDS011;5585;52.530;7.320;2022-12-07T04:43:23;1.97;;;0.77;;
11064;SDS011;5585;52.530;7.320;2022-12-07T04:45:50;5.20;;;1.00;;
11064;SDS011;5585;52.530;7.320;2022-12-07T04:48:16;3.40;;;1.10;;
11064;SDS011;5585;52.530;7.320;2022-12-07T04:50:43;2.00;;;1.07;;
11064;SDS011;5585;52.530;7.320;2022-12-07T04:53:09;3.87;;;1.07;;
11064;SDS011;5585;52.530;7.320;2022-12-07T04:55:36;2.77;;;0.80;;
11064;SDS011;5585;52.530;7.320;2022-12-07T04:58:04;2.03;;;0.50;;
11064;SDS011;5585;52.530;7.320;2022-12-07T05:00:30;3.10;;;0.90;;
11064;SDS011;5585;52.530;7.320;2022-12-07T05:02:58;4.00;;;1.03;;
11064;SDS011;5585;52.530;7.320;2022-12-07T05:05:25;4.53;;;0.90;;
11064;SDS011;5585;52.530;7.320;2022-12-07T05:07:51;2.17;;;1.00;;
11064;SDS011;5585;52.530;7.320;2022-12-07T05:10:18;1.87;;;0.70;;
11064;SDS011;5585;52.530;7.320;2022-12-07T05:12:44;3.27;;;0.73;;
11064;SDS011;5585;52.530;7.320;2022-12-07T05:15:13;1.80;;;0.90;;
11064;SDS011;5585;52.530;7.320;2022-12-07T05:17:39;2.47;;;0.70;;
11064;SDS011;5585;52.530;7.320;2022-12-07T05:20:06;0.97;;;0.60;;
11064;SDS011;5585;52.530;7.320;2022-12-07T05:22:33;3.60;;;0.90;;
11064;SDS011;5585;52.530;7.320;2022-12-07T05:25:00;4.00;;;0.70;;
11064;SDS011;5585;52.530;7.320;2022-12-07T05:27:26;4.13;;;0.80;;
11064;SDS011;5585;52.530;7.320;2022-12-07T05:29:53;1.83;;;0.60;;
11064;SDS011;5585;52.530;7.320;2022-12-07T05:32:21;4.87;;;1.23;;
11064;SDS011;5585;52.530;7.320;2022-12-07T05:34:47;4.23;;;1.03;;
11064;SDS011;5585;52.530;7.320;2022-12-07T05:37:14;2.93;;;0.70;;
11064;SDS011;5585;52.530;7.320;2022-12-07T05:39:40;2.00;;;0.50;;
11064;SDS011;5585;52.530;7.320;2022-12-07T05:42:08;2.00;;;0.77;;
11064;SDS011;5585;52.530;7.320;2022-12-07T05:44:42;2.97;;;1.33;;
11064;SDS011;5585;52.530;7.320;2022-12-07T05:47:09;3.67;;;0.77;;
11064;SDS011;5585;52.530;7.320;2022-12-07T05:49:37;1.43;;;0.53;;
11064;SDS011;5585;52.530;7.320;2022-12-07T05:52:03;1.27;;;0.60;;
11064;SDS011;5585;52.530;7.320;2022-12-07T05:54:30;2.13;;;0.80;;
11064;SDS011;5585;52.530;7.320;2022-12-07T05:56:56;2.37;;;0.90;;
11064;SDS011;5585;52.530;7.320;2022-12-07T05:59:23;4.07;;;1.10;;
11064;SDS011;5585;52.530;7.320;2022-12-07T06:01:49;3.20;;;0.63;;
11064;SDS011;5585;52.530;7.320;2022-12-07T06:04:15;2.03;;;0.57;;
11064;SDS011;5585;52.530;7.320;2022-12-07T06:06:43;4.10;;;0.73;;
11064;SDS011;5585;52.530;7.320;2022-12-07T06:09:10;5.23;;;0.90;;
11064;SDS011;5585;52.530;7.320;2022-12-07T06:11:37;2.37;;;0.70;;
11064;SDS011;5585;52.530;7.320;2022-12-07T06:14:21;2.73;;;0.80;;
11064;SDS011;5585;52.530;7.320;2022-12-07T06:16:48;2.53;;;0.77;;
11064;SDS011;5585;52.530;7.320;2022-12-07T06:19:15;4.90;;;1.23;;
11064;SDS011;5585;52.530;7.320;2022-12-07T06:21:41;3.33;;;1.00;;
11064;SDS011;5585;52.530;7.320;2022-12-07T06:24:10;4.33;;;1.33;;
11064;SDS011;5585;52.530;7.320;2022-12-07T06:26:37;3.67;;;1.20;;
11064;SDS011;5585;52.530;7.320;2022-12-07T06:29:03;2.87;;;1.10;;
11064;SDS011;5585;52.530;7.320;2022-12-07T06:31:30;3.93;;;0.83;;
11064;SDS011;5585;52.530;7.320;2022-12-07T06:33:57;3.17;;;0.87;;
11064;SDS011;5585;52.530;7.320;2022-12-07T06:36:24;3.20;;;1.23;;
11064;SDS011;5585;52.530;7.320;2022-12-07T06:38:50;3.60;;;0.97;;
11064;SDS011;5585;52.530;7.320;2022-12-07T06:41:18;1.97;;;0.70;;
11064;SDS011;5585;52.530;7.320;2022-12-07T06:43:45;2.20;;;0.70;;
11064;SDS011;5585;52.530;7.320;2022-12-07T06:46:12;3.87;;;0.80;;
11064;SDS011;5585;52.530;7.320;2022-12-07T06:48:42;2.77;;;1.43;;
11064;SDS011;5585;52.530;7.320;2022-12-07T06:51:09;2.70;;;0.73;;
11064;SDS011;5585;52.530;7.320;2022-12-07T06:53:36;3.43;;;1.10;;
11064;SDS011;5585;52.530;7.320;2022-12-07T06:56:03;3.40;;;1.03;;
11064;SDS011;5585;52.530;7.320;2022-12-07T06:58:33;2.80;;;1.30;;
11064;SDS011;5585;52.530;7.320;2022-12-07T07:01:00;4.43;;;1.03;;
11064;SDS011;5585;52.530;7.320;2022-12-07T07:03:26;4.37;;;1.00;;
11064;SDS011;5585;52.530;7.320;2022-12-07T07:05:53;3.63;;;1.10;;
11064;SDS011;5585;52.530;7.320;2022-12-07T07:08:20;2.97;;;0.80;;
11064;SDS011;5585;52.530;7.320;2022-12-07T07:10:46;3.23;;;0.80;;
11064;SDS011;5585;52.530;7.320;2022-12-07T07:13:13;2.93;;;0.57;;
11064;SDS011;5585;52.530;7.320;2022-12-07T07:15:41;3.43;;;1.00;;
11064;SDS011;5585;52.530;7.320;2022-12-07T07:18:07;7.33;;;1.60;;
11064;SDS011;5585;52.530;7.320;2022-12-07T07:20:34;5.47;;;1.20;;
11064;SDS011;5585;52.530;7.320;2022-12-07T07:23:00;3.97;;;1.00;;
11064;SDS011;5585;52.530;7.320;2022-12-07T07:25:27;3.27;;;1.30;;
11064;SDS011;5585;52.530;7.320;2022-12-07T07:27:53;4.07;;;1.10;;
11064;SDS011;5585;52.530;7.320;2022-12-07T07:30:20;1.93;;;0.90;;
11064;SDS011;5585;52.530;7.320;2022-12-07T07:32:48;2.77;;;1.03;;
11064;SDS011;5585;52.530;7.320;2022-12-07T07:35:15;4.07;;;0.80;;
11064;SDS011;5585;52.530;7.320;2022-12-07T07:37:41;5.17;;;1.30;;
11064;SDS011;5585;52.530;7.320;2022-12-07T07:40:08;2.13;;;0.80;;
11064;SDS011;5585;52.530;7.320;2022-12-07T07:42:35;7.20;;;1.30;;
11064;SDS011;5585;52.530;7.320;2022-12-07T07:45:01;4.47;;;1.00;;
11064;SDS011;5585;52.530;7.320;2022-12-07T07:47:28;2.43;;;0.90;;
11064;SDS011;5585;52.530;7.320;2022-12-07T07:49:56;4.20;;;0.70;;
11064;SDS011;5585;52.530;7.320;2022-12-07T07:52:22;4.53;;;0.73;;
11064;SDS011;5585;52.530;7.320;2022-12-07T07:54:49;2.53;;;0.90;;
11064;SDS011;5585;52.530;7.320;2022-12-07T07:57:15;6.30;;;1.40;;
11064;SDS011;5585;52.530;7.320;2022-12-07T07:59:42;2.67;;;1.03;;
11064;SDS011;5585;52.530;7.320;2022-12-07T08:02:09;5.33;;;1.30;;
11064;SDS011;5585;52.530;7.320;2022-12-07T08:04:39;2.97;;;1.00;;
11064;SDS011;5585;52.530;7.320;2022-12-07T08:07:07;4.00;;;1.10;;
11064;SDS011;5585;52.530;7.320;2022-12-07T08:09:34;6.17;;;1.60;;
11064;SDS011;5585;52.530;7.320;2022-12-07T08:12:00;4.20;;;1.20;;
11064;SDS011;5585;52.530;7.320;2022-12-07T08:14:27;3.83;;;1.43;;
11064;SDS011;5585;52.530;7.320;2022-12-07T08:16:53;4.20;;;1.33;;
11064;SDS011;5585;52.530;7.320;2022-12-07T08:19:20;3.90;;;1.17;;
11064;SDS011;5585;52.530;7.320;2022-12-07T08:21:47;4.47;;;1.20;;
11064;SDS011;5585;52.530;7.320;2022-12-07T08:24:15;5.10;;;0.90;;
11064;SDS011;5585;52.530;7.320;2022-12-07T08:26:41;4.67;;;1.27;;
11064;SDS011;5585;52.530;7.320;2022-12-07T08:29:08;2.53;;;1.20;;
11064;SDS011;5585;52.530;7.320;2022-12-07T08:31:34;4.40;;;1.13;;
11064;SDS011;5585;52.530;7.320;2022-12-07T08:34:01;3.57;;;0.90;;
11064;SDS011;5585;52.530;7.320;2022-12-07T08:36:27;1.60;;;0.73;;
11064;SDS011;5585;52.530;7.320;2022-12-07T08:38:54;5.27;;;1.20;;
11064;SDS011;5585;52.530;7.320;2022-12-07T08:41:22;3.40;;;0.90;;
11064;SDS011;5585;52.530;7.320;2022-12-07T08:43:48;3.07;;;0.83;;
11064;SDS011;5585;52.530;7.320;2022-12-07T08:46:16;2.77;;;0.93;;
11064;SDS011;5585;52.530;7.320;2022-12-07T08:48:46;5.37;;;1.17;;
11064;SDS011;5585;52.530;7.320;2022-12-07T08:51:15;2.37;;;1.00;;
11064;SDS011;5585;52.530;7.320;2022-12-07T08:53:41;4.03;;;1.40;;
11064;SDS011;5585;52.530;7.320;2022-12-07T08:56:08;4.50;;;1.50;;
11064;SDS011;5585;52.530;7.320;2022-12-07T08:58:37;4.63;;;1.57;;
11064;SDS011;5585;52.530;7.320;2022-12-07T09:01:05;3.17;;;1.37;;
11064;SDS011;5585;52.530;7.320;2022-12-07T09:03:31;5.97;;;1.40;;
11064;SDS011;5585;52.530;7.320;2022-12-07T09:05:58;4.63;;;1.20;;
11064;SDS011;5585;52.530;7.320;2022-12-07T09:08:26;4.67;;;1.67;;
11064;SDS011;5585;52.530;7.320;2022-12-07T09:10:53;2.77;;;1.43;;
11064;SDS011;5585;52.530;7.320;2022-12-07T09:13:19;3.73;;;1.10;;
11064;SDS011;5585;52.530;7.320;2022-12-07T09:15:47;4.33;;;1.00;;
11064;SDS011;5585;52.530;7.320;2022-12-07T09:18:14;2.67;;;1.30;;
11064;SDS011;5585;52.530;7.320;2022-12-07T09:20:40;3.13;;;0.90;;
11064;SDS011;5585;52.530;7.320;2022-12-07T09:23:07;3.30;;;1.10;;
11064;SDS011;5585;52.530;7.320;2022-12-07T09:25:33;3.57;;;1.50;;
11064;SDS011;5585;52.530;7.320;2022-12-07T09:28:00;5.53;;;1.40;;
11064;SDS011;5585;52.530;7.320;2022-12-07T09:30:27;3.70;;;1.00;;
11064;SDS011;5585;52.530;7.320;2022-12-07T09:32:55;1.53;;;0.77;;
11064;SDS011;5585;52.530;7.320;2022-12-07T09:35:22;2.97;;;1.00;;
11064;SDS011;5585;52.530;7.320;2022-12-07T09:37:49;4.10;;;0.93;;
11064;SDS011;5585;52.530;7.320;2022-12-07T09:40:16;3.60;;;0.97;;
11064;SDS011;5585;52.530;7.320;2022-12-07T09:42:44;4.27;;;1.37;;
11064;SDS011;5585;52.530;7.320;2022-12-07T09:45:12;4.53;;;1.20;;
11064;SDS011;5585;52.530;7.320;2022-12-07T09:47:40;4.50;;;1.07;;
11064;SDS011;5585;52.530;7.320;2022-12-07T09:50:11;2.80;;;0.70;;
11064;SDS011;5585;52.530;7.320;2022-12-07T09:52:39;6.27;;;1.20;;
11064;SDS011;5585;52.530;7.320;2022-12-07T09:55:09;6.43;;;1.13;;
11064;SDS011;5585;52.530;7.320;2022-12-07T09:57:36;4.63;;;0.83;;
11064;SDS011;5585;52.530;7.320;2022-12-07T10:00:04;5.47;;;0.90;;
11064;SDS011;5585;52.530;7.320;2022-12-07T10:02:34;3.50;;;0.80;;
11064;SDS011;5585;52.530;7.320;2022-12-07T10:05:02;3.10;;;0.83;;
11064;SDS011;5585;52.530;7.320;2022-12-07T10:07:31;3.40;;;1.07;;
11064;SDS011;5585;52.530;7.320;2022-12-07T10:09:57;4.63;;;0.90;;
11064;SDS011;5585;52.530;7.320;2022-12-07T10:12:24;1.77;;;0.90;;
11064;SDS011;5585;52.530;7.320;2022-12-07T10:14:54;2.73;;;0.97;;
11064;SDS011;5585;52.530;7.320;2022-12-07T10:17:31;4.60;;;1.10;;
11064;SDS011;5585;52.530;7.320;2022-12-07T10:23:03;2.57;;;0.90;;
11064;SDS011;5585;52.530;7.320;2022-12-07T10:25:30;2.37;;;1.00;;
11064;SDS011;5585;52.530;7.320;2022-12-07T10:28:00;3.13;;;1.00;;
11064;SDS011;5585;52.530;7.320;2022-12-07T10:30:26;6.17;;;1.33;;
11064;SDS011;5585;52.530;7.320;2022-12-07T10:32:53;3.50;;;0.90;;
11064;SDS011;5585;52.530;7.320;2022-12-07T10:35:22;3.90;;;1.00;;
11064;SDS011;5585;52.530;7.320;2022-12-07T10:37:49;4.07;;;0.90;;
11064;SDS011;5585;52.530;7.320;2022-12-07T10:40:28;4.37;;;1.07;;
11064;SDS011;5585;52.530;7.320;2022-12-07T10:43:02;4.57;;;0.93;;
11064;SDS011;5585;52.530;7.320;2022-12-07T10:45:28;3.70;;;0.70;;
11064;SDS011;5585;52.530;7.320;2022-12-07T10:47:56;4.10;;;0.93;;
11064;SDS011;5585;52.530;7.320;2022-12-07T10:50:31;4.93;;;1.20;;
11064;SDS011;5585;52.530;7.320;2022-12-07T10:53:04;3.53;;;0.73;;
11064;SDS011;5585;52.530;7.320;2022-12-07T10:55:39;8.30;;;1.00;;
11064;SDS011;5585;52.530;7.320;2022-12-07T10:58:13;3.30;;;0.80;;
11064;SDS011;5585;52.530;7.320;2022-12-07T11:00:43;4.67;;;1.03;;
11064;SDS011;5585;52.530;7.320;2022-12-07T11:03:23;2.57;;;0.87;;
11064;SDS011;5585;52.530;7.320;2022-12-07T11:05:54;4.57;;;0.93;;
11064;SDS011;5585;52.530;7.320;2022-12-07T11:08:27;2.67;;;0.93;;
11064;SDS011;5585;52.530;7.320;2022-12-07T11:11:00;5.27;;;0.93;;
11064;SDS011;5585;52.530;7.320;2022-12-07T11:13:33;5.67;;;1.00;;
11064;SDS011;5585;52.530;7.320;2022-12-07T11:16:07;4.33;;;0.90;;
11064;SDS011;5585;52.530;7.320;2022-12-07T11:18:37;2.20;;;0.70;;
11064;SDS011;5585;52.530;7.320;2022-12-07T11:21:07;4.37;;;0.93;;
11064;SDS011;5585;52.530;7.320;2022-12-07T11:23:40;3.37;;;0.87;;
11064;SDS011;5585;52.530;7.320;2022-12-07T11:26:12;3.33;;;0.70;;
11064;SDS011;5585;52.530;7.320;2022-12-07T11:28:46;4.20;;;1.30;;
11064;SDS011;5585;52.530;7.320;2022-12-07T11:31:17;4.57;;;0.73;;
11064;SDS011;5585;52.530;7.320;2022-12-07T11:33:47;5.00;;;1.17;;
11064;SDS011;5585;52.530;7.320;2022-12-07T11:36:24;2.63;;;1.00;;
11064;SDS011;5585;52.530;7.320;2022-12-07T11:38:56;3.83;;;1.00;;
11064;SDS011;5585;52.530;7.320;2022-12-07T11:41:25;3.80;;;1.00;;
11064;SDS011;5585;52.530;7.320;2022-12-07T11:43:54;4.33;;;1.03;;
11064;SDS011;5585;52.530;7.320;2022-12-07T11:46:22;5.40;;;1.10;;
11064;SDS011;5585;52.530;7.320;2022-12-07T11:48:52;3.73;;;0.93;;
11064;SDS011;5585;52.530;7.320;2022-12-07T11:51:21;3.20;;;0.93;;
11064;SDS011;5585;52.530;7.320;2022-12-07T11:53:49;2.83;;;1.00;;
11064;SDS011;5585;52.530;7.320;2022-12-07T11:56:19;5.03;;;1.20;;
11064;SDS011;5585;52.530;7.320;2022-12-07T11:58:49;3.30;;;1.00;;
11064;SDS011;5585;52.530;7.320;2022-12-07T12:04:01;4.40;;;1.10;;
11064;SDS011;5585;52.530;7.320;2022-12-07T12:06:29;7.33;;;1.13;;
11064;SDS011;5585;52.530;7.320;2022-12-07T12:08:58;6.37;;;1.20;;
11064;SDS011;5585;52.530;7.320;2022-12-07T12:11:31;7.27;;;1.30;;
11064;SDS011;5585;52.530;7.320;2022-12-07T12:14:10;5.93;;;1.13;;
11064;SDS011;5585;52.530;7.320;2022-12-07T12:16:42;4.10;;;1.00;;
11064;SDS011;5585;52.530;7.320;2022-12-07T12:19:15;3.07;;;0.93;;
11064;SDS011;5585;52.530;7.320;2022-12-07T12:21:45;3.90;;;0.70;;
11064;SDS011;5585;52.530;7.320;2022-12-07T12:24:13;6.30;;;1.50;;
11064;SDS011;5585;52.530;7.320;2022-12-07T12:26:48;3.80;;;1.33;;
11064;SDS011;5585;52.530;7.320;2022-12-07T12:29:21;6.67;;;1.03;;
11064;SDS011;5585;52.530;7.320;2022-12-07T12:32:04;2.87;;;0.97;;
11064;SDS011;5585;52.530;7.320;2022-12-07T12:34:38;4.10;;;1.40;;
11064;SDS011;5585;52.530;7.320;2022-12-07T12:37:14;4.60;;;1.10;;
11064;SDS011;5585;52.530;7.320;2022-12-07T12:42:44;5.27;;;1.00;;
11064;SDS011;5585;52.530;7.320;2022-12-07T12:45:20;6.93;;;1.03;;
11064;SDS011;5585;52.530;7.320;2022-12-07T12:47:56;3.60;;;1.00;;
11064;SDS011;5585;52.530;7.320;2022-12-07T12:50:24;3.50;;;0.80;;
11064;SDS011;5585;52.530;7.320;2022-12-07T12:53:02;4.73;;;1.17;;
11064;SDS011;5585;52.530;7.320;2022-12-07T12:58:30;2.23;;;0.63;;
11064;SDS011;5585;52.530;7.320;2022-12-07T13:03:51;3.47;;;1.00;;
11064;SDS011;5585;52.530;7.320;2022-12-07T13:06:19;6.73;;;1.40;;
11064;SDS011;5585;52.530;7.320;2022-12-07T13:08:46;3.80;;;0.80;;
11064;SDS011;5585;52.530;7.320;2022-12-07T13:11:16;3.30;;;1.00;;
11064;SDS011;5585;52.530;7.320;2022-12-07T13:13:43;3.20;;;1.00;;
11064;SDS011;5585;52.530;7.320;2022-12-07T13:21:46;4.17;;;1.10;;
11064;SDS011;5585;52.530;7.320;2022-12-07T13:24:12;6.00;;;1.33;;
11064;SDS011;5585;52.530;7.320;2022-12-07T13:26:41;2.63;;;1.30;;
11064;SDS011;5585;52.530;7.320;2022-12-07T13:29:10;3.10;;;0.90;;
11064;SDS011;5585;52.530;7.320;2022-12-07T13:31:38;2.77;;;0.80;;
11064;SDS011;5585;52.530;7.320;2022-12-07T13:34:26;3.33;;;0.80;;
11064;SDS011;5585;52.530;7.320;2022-12-07T13:36:53;3.40;;;1.10;;
11064;SDS011;5585;52.530;7.320;2022-12-07T13:39:21;3.93;;;0.83;;
11064;SDS011;5585;52.530;7.320;2022-12-07T13:41:51;2.83;;;0.83;;
11064;SDS011;5585;52.530;7.320;2022-12-07T13:44:18;8.67;;;1.43;;
11064;SDS011;5585;52.530;7.320;2022-12-07T13:46:47;3.60;;;0.83;;
11064;SDS011;5585;52.530;7.320;2022-12-07T13:49:16;3.50;;;1.17;;
11064;SDS011;5585;52.530;7.320;2022-12-07T13:51:43;4.80;;;1.20;;
11064;SDS011;5585;52.530;7.320;2022-12-07T13:54:11;5.63;;;1.17;;
11064;SDS011;5585;52.530;7.320;2022-12-07T13:56:38;3.93;;;0.93;;
11064;SDS011;5585;52.530;7.320;2022-12-07T13:59:05;4.03;;;1.27;;
11064;SDS011;5585;52.530;7.320;2022-12-07T14:01:32;7.23;;;1.20;;
11064;SDS011;5585;52.530;7.320;2022-12-07T14:06:46;4.40;;;1.47;;
11064;SDS011;5585;52.530;7.320;2022-12-07T14:09:18;5.80;;;0.93;;
11064;SDS011;5585;52.530;7.320;2022-12-07T14:11:45;3.07;;;0.80;;
11064;SDS011;5585;52.530;7.320;2022-12-07T14:14:13;5.37;;;1.27;;
11064;SDS011;5585;52.530;7.320;2022-12-07T14:16:41;4.80;;;1.17;;
11064;SDS011;5585;52.530;7.320;2022-12-07T14:22:07;3.20;;;1.10;;
11064;SDS011;5585;52.530;7.320;2022-12-07T14:24:42;2.37;;;0.97;;
11064;SDS011;5585;52.530;7.320;2022-12-07T14:27:16;5.53;;;1.70;;
11064;SDS011;5585;52.530;7.320;2022-12-07T14:29:43;4.33;;;1.13;;
11064;SDS011;5585;52.530;7.320;2022-12-07T14:32:17;4.33;;;1.10;;
11064;SDS011;5585;52.530;7.320;2022-12-07T14:34:52;3.50;;;1.23;;
11064;SDS011;5585;52.530;7.320;2022-12-07T14:37:19;3.03;;;1.00;;
11064;SDS011;5585;52.530;7.320;2022-12-07T14:39:47;4.40;;;1.50;;
11064;SDS011;5585;52.530;7.320;2022-12-07T14:42:13;2.37;;;1.00;;
11064;SDS011;5585;52.530;7.320;2022-12-07T14:44:40;3.50;;;1.37;;
11064;SDS011;5585;52.530;7.320;2022-12-07T14:47:08;3.27;;;1.17;;
11064;SDS011;5585;52.530;7.320;2022-12-07T14:49:34;5.30;;;1.63;;
11064;SDS011;5585;52.530;7.320;2022-12-07T14:52:01;6.57;;;2.27;;
11064;SDS011;5585;52.530;7.320;2022-12-07T14:54:29;4.13;;;1.60;;
11064;SDS011;5585;52.530;7.320;2022-12-07T14:56:58;5.00;;;1.80;;
11064;SDS011;5585;52.530;7.320;2022-12-07T14:59:25;3.20;;;1.27;;
11064;SDS011;5585;52.530;7.320;2022-12-07T15:01:51;5.07;;;1.50;;
11064;SDS011;5585;52.530;7.320;2022-12-07T15:04:18;3.07;;;1.37;;
11064;SDS011;5585;52.530;7.320;2022-12-07T15:06:53;4.07;;;1.37;;
11064;SDS011;5585;52.530;7.320;2022-12-07T15:09:20;6.47;;;1.57;;
11064;SDS011;5585;52.530;7.320;2022-12-07T15:11:46;2.93;;;0.90;;
11064;SDS011;5585;52.530;7.320;2022-12-07T15:14:14;4.60;;;0.97;;
11064;SDS011;5585;52.530;7.320;2022-12-07T15:16:41;3.53;;;1.23;;
11064;SDS011;5585;52.530;7.320;2022-12-07T15:19:12;3.57;;;1.10;;
11064;SDS011;5585;52.530;7.320;2022-12-07T15:21:39;4.17;;;1.07;;
11064;SDS011;5585;52.530;7.320;2022-12-07T15:24:06;3.97;;;0.90;;
11064;SDS011;5585;52.530;7.320;2022-12-07T15:26:32;4.63;;;0.80;;
11064;SDS011;5585;52.530;7.320;2022-12-07T15:28:59;3.13;;;0.67;;
11064;SDS011;5585;52.530;7.320;2022-12-07T15:31:27;1.73;;;0.40;;
11064;SDS011;5585;52.530;7.320;2022-12-07T15:33:53;2.17;;;0.50;;